sensor_id;sensor_type;location;lat;lon;timestamp;P1;durP1;ratioP1;P2;durP2;ratioP2
5965;SDS011;3009;43.224;27.976;2023-08-08T00:02:17;5.37;;;4.77;;
5965;SDS011;3009;43.224;27.976;2023-08-08T00:04:48;5.10;;;4.80;;
5965;SDS011;3009;43.224;27.976;2023-08-08T00:07:16;4.80;;;4.60;;
5965;SDS011;3009;43.224;27.976;2023-08-08T00:09:45;5.00;;;4.80;;
5965;SDS011;3009;43.224;27.976;2023-08-08T00:12:13;4.80;;;4.60;;
5965;SDS011;3009;43.224;27.976;2023-08-08T00:14:42;4.40;;;4.30;;
5965;SDS011;3009;43.224;27.976;2023-08-08T00:17:10;4.40;;;4.30;;
5965;SDS011;3009;43.224;27.976;2023-08-08T00:19:39;6.70;;;4.80;;
5965;SDS011;3009;43.224;27.976;2023-08-08T00:22:08;5.10;;;4.90;;
5965;SDS011;3009;43.224;27.976;2023-08-08T00:24:37;6.90;;;4.40;;
5965;SDS011;3009;43.224;27.976;2023-08-08T00:27:05;4.40;;;4.30;;
5965;SDS011;3009;43.224;27.976;2023-08-08T00:29:34;6.73;;;4.43;;
5965;SDS011;3009;43.224;27.976;2023-08-08T00:32:02;4.60;;;4.40;;
5965;SDS011;3009;43.224;27.976;2023-08-08T00:34:31;4.77;;;4.60;;
5965;SDS011;3009;43.224;27.976;2023-08-08T00:37:00;4.97;;;4.50;;
5965;SDS011;3009;43.224;27.976;2023-08-08T00:39:29;6.67;;;4.70;;
5965;SDS011;3009;43.224;27.976;2023-08-08T00:41:59;7.20;;;4.70;;
5965;SDS011;3009;43.224;27.976;2023-08-08T00:44:27;4.73;;;4.43;;
5965;SDS011;3009;43.224;27.976;2023-08-08T00:46:56;4.90;;;4.60;;
5965;SDS011;3009;43.224;27.976;2023-08-08T00:49:24;10.63;;;4.93;;
5965;SDS011;3009;43.224;27.976;2023-08-08T00:51:52;4.83;;;4.63;;
5965;SDS011;3009;43.224;27.976;2023-08-08T00:54:21;10.97;;;5.50;;
5965;SDS011;3009;43.224;27.976;2023-08-08T00:56:51;15.73;;;5.00;;
5965;SDS011;3009;43.224;27.976;2023-08-08T00:59:19;4.90;;;4.70;;
5965;SDS011;3009;43.224;27.976;2023-08-08T01:01:48;4.97;;;4.50;;
5965;SDS011;3009;43.224;27.976;2023-08-08T01:04:17;4.80;;;4.60;;
5965;SDS011;3009;43.224;27.976;2023-08-08T01:06:48;9.40;;;4.90;;
5965;SDS011;3009;43.224;27.976;2023-08-08T01:09:24;4.80;;;4.60;;
5965;SDS011;3009;43.224;27.976;2023-08-08T01:11:59;23.00;;;5.40;;
5965;SDS011;3009;43.224;27.976;2023-08-08T01:14:29;7.67;;;4.80;;
5965;SDS011;3009;43.224;27.976;2023-08-08T01:17:00;11.47;;;5.30;;
5965;SDS011;3009;43.224;27.976;2023-08-08T01:19:30;4.83;;;4.50;;
5965;SDS011;3009;43.224;27.976;2023-08-08T01:22:02;4.90;;;4.53;;
5965;SDS011;3009;43.224;27.976;2023-08-08T01:24:34;5.90;;;5.30;;
5965;SDS011;3009;43.224;27.976;2023-08-08T01:27:04;10.57;;;4.60;;
5965;SDS011;3009;43.224;27.976;2023-08-08T01:29:33;8.77;;;5.17;;
5965;SDS011;3009;43.224;27.976;2023-08-08T01:32:02;8.60;;;5.20;;
5965;SDS011;3009;43.224;27.976;2023-08-08T01:34:31;5.40;;;4.70;;
5965;SDS011;3009;43.224;27.976;2023-08-08T01:36:59;15.83;;;5.57;;
5965;SDS011;3009;43.224;27.976;2023-08-08T01:39:36;4.97;;;4.73;;
5965;SDS011;3009;43.224;27.976;2023-08-08T01:42:08;5.60;;;4.70;;
5965;SDS011;3009;43.224;27.976;2023-08-08T01:44:38;5.40;;;4.90;;
5965;SDS011;3009;43.224;27.976;2023-08-08T01:47:09;10.33;;;4.90;;
5965;SDS011;3009;43.224;27.976;2023-08-08T01:49:37;7.10;;;4.47;;
5965;SDS011;3009;43.224;27.976;2023-08-08T01:52:06;5.47;;;5.07;;
5965;SDS011;3009;43.224;27.976;2023-08-08T01:54:36;5.93;;;5.10;;
5965;SDS011;3009;43.224;27.976;2023-08-08T01:57:05;4.43;;;4.23;;
5965;SDS011;3009;43.224;27.976;2023-08-08T01:59:33;5.20;;;5.00;;
5965;SDS011;3009;43.224;27.976;2023-08-08T02:02:01;4.60;;;4.40;;
5965;SDS011;3009;43.224;27.976;2023-08-08T02:04:30;24.70;;;5.50;;
5965;SDS011;3009;43.224;27.976;2023-08-08T02:06:58;4.90;;;4.60;;
5965;SDS011;3009;43.224;27.976;2023-08-08T02:09:27;4.93;;;4.70;;
5965;SDS011;3009;43.224;27.976;2023-08-08T02:11:57;5.00;;;4.57;;
5965;SDS011;3009;43.224;27.976;2023-08-08T02:14:25;8.60;;;5.00;;
5965;SDS011;3009;43.224;27.976;2023-08-08T02:16:54;7.80;;;4.50;;
5965;SDS011;3009;43.224;27.976;2023-08-08T02:19:22;4.90;;;4.60;;
5965;SDS011;3009;43.224;27.976;2023-08-08T02:21:51;4.73;;;4.53;;
5965;SDS011;3009;43.224;27.976;2023-08-08T02:24:19;5.10;;;4.80;;
5965;SDS011;3009;43.224;27.976;2023-08-08T02:26:48;6.30;;;4.77;;
5965;SDS011;3009;43.224;27.976;2023-08-08T02:29:18;6.60;;;4.50;;
5965;SDS011;3009;43.224;27.976;2023-08-08T02:31:46;4.50;;;4.30;;
5965;SDS011;3009;43.224;27.976;2023-08-08T02:34:14;4.80;;;4.40;;
5965;SDS011;3009;43.224;27.976;2023-08-08T02:36:43;4.60;;;4.40;;
5965;SDS011;3009;43.224;27.976;2023-08-08T02:39:11;5.20;;;4.70;;
5965;SDS011;3009;43.224;27.976;2023-08-08T02:41:40;4.90;;;4.63;;
5965;SDS011;3009;43.224;27.976;2023-08-08T02:44:09;4.80;;;4.57;;
5965;SDS011;3009;43.224;27.976;2023-08-08T02:46:39;4.90;;;4.60;;
5965;SDS011;3009;43.224;27.976;2023-08-08T02:49:07;4.70;;;4.50;;
5965;SDS011;3009;43.224;27.976;2023-08-08T02:51:36;4.77;;;4.40;;
5965;SDS011;3009;43.224;27.976;2023-08-08T02:54:04;4.93;;;4.53;;
5965;SDS011;3009;43.224;27.976;2023-08-08T02:56:33;9.80;;;4.20;;
5965;SDS011;3009;43.224;27.976;2023-08-08T02:59:01;4.70;;;4.30;;
5965;SDS011;3009;43.224;27.976;2023-08-08T03:01:30;4.00;;;3.80;;
5965;SDS011;3009;43.224;27.976;2023-08-08T03:03:59;5.30;;;4.80;;
5965;SDS011;3009;43.224;27.976;2023-08-08T03:06:28;3.80;;;3.70;;
5965;SDS011;3009;43.224;27.976;2023-08-08T03:08:56;4.57;;;4.20;;
5965;SDS011;3009;43.224;27.976;2023-08-08T03:11:24;4.80;;;4.23;;
5965;SDS011;3009;43.224;27.976;2023-08-08T03:13:53;4.50;;;4.30;;
5965;SDS011;3009;43.224;27.976;2023-08-08T03:16:21;7.97;;;4.57;;
5965;SDS011;3009;43.224;27.976;2023-08-08T03:18:50;4.20;;;4.00;;
5965;SDS011;3009;43.224;27.976;2023-08-08T03:21:19;4.50;;;4.30;;
5965;SDS011;3009;43.224;27.976;2023-08-08T03:23:48;7.60;;;4.23;;
5965;SDS011;3009;43.224;27.976;2023-08-08T03:26:16;5.90;;;3.93;;
5965;SDS011;3009;43.224;27.976;2023-08-08T03:28:44;4.10;;;3.90;;
5965;SDS011;3009;43.224;27.976;2023-08-08T03:31:16;4.57;;;4.27;;
5965;SDS011;3009;43.224;27.976;2023-08-08T03:33:45;8.57;;;4.17;;
5965;SDS011;3009;43.224;27.976;2023-08-08T03:36:14;15.10;;;4.40;;
5965;SDS011;3009;43.224;27.976;2023-08-08T03:38:44;10.73;;;4.57;;
5965;SDS011;3009;43.224;27.976;2023-08-08T03:41:13;6.67;;;4.80;;
5965;SDS011;3009;43.224;27.976;2023-08-08T03:43:41;7.67;;;4.70;;
5965;SDS011;3009;43.224;27.976;2023-08-08T03:46:09;4.43;;;4.07;;
5965;SDS011;3009;43.224;27.976;2023-08-08T03:48:38;6.60;;;4.40;;
5965;SDS011;3009;43.224;27.976;2023-08-08T03:51:06;4.30;;;4.20;;
5965;SDS011;3009;43.224;27.976;2023-08-08T03:53:35;4.67;;;4.47;;
5965;SDS011;3009;43.224;27.976;2023-08-08T03:56:05;8.63;;;4.73;;
5965;SDS011;3009;43.224;27.976;2023-08-08T03:58:34;4.07;;;3.87;;
5965;SDS011;3009;43.224;27.976;2023-08-08T04:01:02;18.20;;;5.20;;
5965;SDS011;3009;43.224;27.976;2023-08-08T04:03:30;4.80;;;4.50;;
5965;SDS011;3009;43.224;27.976;2023-08-08T04:05:59;5.13;;;4.83;;
5965;SDS011;3009;43.224;27.976;2023-08-08T04:08:27;11.77;;;4.27;;
5965;SDS011;3009;43.224;27.976;2023-08-08T04:10:56;8.80;;;5.00;;
5965;SDS011;3009;43.224;27.976;2023-08-08T04:13:26;9.53;;;5.13;;
5965;SDS011;3009;43.224;27.976;2023-08-08T04:15:54;5.83;;;5.10;;
5965;SDS011;3009;43.224;27.976;2023-08-08T04:18:22;7.00;;;4.70;;
5965;SDS011;3009;43.224;27.976;2023-08-08T04:20:51;5.53;;;4.73;;
5965;SDS011;3009;43.224;27.976;2023-08-08T04:23:19;7.13;;;4.57;;
5965;SDS011;3009;43.224;27.976;2023-08-08T04:25:49;6.23;;;4.40;;
5965;SDS011;3009;43.224;27.976;2023-08-08T04:28:17;12.37;;;4.90;;
5965;SDS011;3009;43.224;27.976;2023-08-08T04:30:47;6.83;;;4.30;;
5965;SDS011;3009;43.224;27.976;2023-08-08T04:33:15;4.60;;;4.30;;
5965;SDS011;3009;43.224;27.976;2023-08-08T04:35:43;5.03;;;4.30;;
5965;SDS011;3009;43.224;27.976;2023-08-08T04:38:13;6.57;;;4.63;;
5965;SDS011;3009;43.224;27.976;2023-08-08T04:40:42;7.13;;;4.30;;
5965;SDS011;3009;43.224;27.976;2023-08-08T04:43:11;5.90;;;4.30;;
5965;SDS011;3009;43.224;27.976;2023-08-08T04:45:39;5.10;;;4.70;;
5965;SDS011;3009;43.224;27.976;2023-08-08T04:48:09;4.60;;;4.20;;
5965;SDS011;3009;43.224;27.976;2023-08-08T04:50:37;9.43;;;4.80;;
5965;SDS011;3009;43.224;27.976;2023-08-08T04:53:07;4.90;;;3.73;;
5965;SDS011;3009;43.224;27.976;2023-08-08T04:55:35;17.13;;;4.57;;
5965;SDS011;3009;43.224;27.976;2023-08-08T04:58:04;8.57;;;4.37;;
5965;SDS011;3009;43.224;27.976;2023-08-08T05:00:32;10.50;;;4.97;;
5965;SDS011;3009;43.224;27.976;2023-08-08T05:03:02;7.60;;;4.40;;
5965;SDS011;3009;43.224;27.976;2023-08-08T05:05:32;8.10;;;4.60;;
5965;SDS011;3009;43.224;27.976;2023-08-08T05:08:00;7.63;;;4.53;;
5965;SDS011;3009;43.224;27.976;2023-08-08T05:10:28;12.10;;;5.10;;
5965;SDS011;3009;43.224;27.976;2023-08-08T05:12:57;8.03;;;4.60;;
5965;SDS011;3009;43.224;27.976;2023-08-08T05:15:26;12.63;;;4.80;;
5965;SDS011;3009;43.224;27.976;2023-08-08T05:17:54;4.07;;;3.97;;
5965;SDS011;3009;43.224;27.976;2023-08-08T05:20:23;14.77;;;4.50;;
5965;SDS011;3009;43.224;27.976;2023-08-08T05:22:53;11.80;;;5.73;;
5965;SDS011;3009;43.224;27.976;2023-08-08T05:25:21;4.67;;;4.30;;
5965;SDS011;3009;43.224;27.976;2023-08-08T05:27:50;4.47;;;4.27;;
5965;SDS011;3009;43.224;27.976;2023-08-08T05:30:20;14.93;;;6.20;;
5965;SDS011;3009;43.224;27.976;2023-08-08T05:32:48;5.10;;;4.80;;
5965;SDS011;3009;43.224;27.976;2023-08-08T05:35:16;10.70;;;4.77;;
5965;SDS011;3009;43.224;27.976;2023-08-08T05:37:45;21.13;;;4.90;;
5965;SDS011;3009;43.224;27.976;2023-08-08T05:40:14;5.00;;;4.60;;
5965;SDS011;3009;43.224;27.976;2023-08-08T05:42:43;4.97;;;4.73;;
5965;SDS011;3009;43.224;27.976;2023-08-08T05:45:11;24.93;;;5.20;;
5965;SDS011;3009;43.224;27.976;2023-08-08T05:47:40;12.30;;;4.80;;
5965;SDS011;3009;43.224;27.976;2023-08-08T05:50:09;7.50;;;4.60;;
5965;SDS011;3009;43.224;27.976;2023-08-08T05:52:37;12.00;;;5.33;;
5965;SDS011;3009;43.224;27.976;2023-08-08T05:55:06;7.13;;;4.77;;
5965;SDS011;3009;43.224;27.976;2023-08-08T05:57:36;11.17;;;4.17;;
5965;SDS011;3009;43.224;27.976;2023-08-08T06:00:05;12.73;;;4.47;;
5965;SDS011;3009;43.224;27.976;2023-08-08T06:02:37;17.53;;;4.50;;
5965;SDS011;3009;43.224;27.976;2023-08-08T06:05:07;4.80;;;4.50;;
5965;SDS011;3009;43.224;27.976;2023-08-08T06:07:36;14.47;;;4.83;;
5965;SDS011;3009;43.224;27.976;2023-08-08T06:10:05;9.33;;;4.83;;
5965;SDS011;3009;43.224;27.976;2023-08-08T06:12:36;25.60;;;5.43;;
5965;SDS011;3009;43.224;27.976;2023-08-08T06:15:05;9.47;;;4.60;;
5965;SDS011;3009;43.224;27.976;2023-08-08T06:17:35;20.63;;;4.40;;
5965;SDS011;3009;43.224;27.976;2023-08-08T06:20:04;12.07;;;4.40;;
5965;SDS011;3009;43.224;27.976;2023-08-08T06:22:34;34.43;;;5.77;;
5965;SDS011;3009;43.224;27.976;2023-08-08T06:25:03;12.73;;;5.20;;
5965;SDS011;3009;43.224;27.976;2023-08-08T06:27:32;11.43;;;5.33;;
5965;SDS011;3009;43.224;27.976;2023-08-08T06:30:02;4.80;;;4.40;;
5965;SDS011;3009;43.224;27.976;2023-08-08T06:32:31;11.90;;;4.50;;
5965;SDS011;3009;43.224;27.976;2023-08-08T06:34:59;6.23;;;4.50;;
5965;SDS011;3009;43.224;27.976;2023-08-08T06:37:27;5.60;;;5.13;;
5965;SDS011;3009;43.224;27.976;2023-08-08T06:39:56;5.67;;;4.90;;
5965;SDS011;3009;43.224;27.976;2023-08-08T06:42:24;10.60;;;4.63;;
5965;SDS011;3009;43.224;27.976;2023-08-08T06:44:52;13.73;;;5.70;;
5965;SDS011;3009;43.224;27.976;2023-08-08T06:47:22;12.27;;;5.00;;
5965;SDS011;3009;43.224;27.976;2023-08-08T06:49:50;15.20;;;5.73;;
5965;SDS011;3009;43.224;27.976;2023-08-08T06:52:19;12.70;;;6.17;;
5965;SDS011;3009;43.224;27.976;2023-08-08T06:54:49;5.57;;;5.07;;
5965;SDS011;3009;43.224;27.976;2023-08-08T06:57:17;14.10;;;4.57;;
5965;SDS011;3009;43.224;27.976;2023-08-08T06:59:45;5.10;;;4.60;;
5965;SDS011;3009;43.224;27.976;2023-08-08T07:02:17;6.43;;;5.00;;
5965;SDS011;3009;43.224;27.976;2023-08-08T07:04:48;11.00;;;4.80;;
5965;SDS011;3009;43.224;27.976;2023-08-08T07:07:16;5.40;;;5.00;;
5965;SDS011;3009;43.224;27.976;2023-08-08T07:09:45;11.93;;;4.70;;
5965;SDS011;3009;43.224;27.976;2023-08-08T07:12:13;7.83;;;4.47;;
5965;SDS011;3009;43.224;27.976;2023-08-08T07:14:42;5.20;;;4.80;;
5965;SDS011;3009;43.224;27.976;2023-08-08T07:17:10;11.00;;;5.63;;
5965;SDS011;3009;43.224;27.976;2023-08-08T07:19:38;6.27;;;5.17;;
5965;SDS011;3009;43.224;27.976;2023-08-08T07:22:09;4.97;;;4.57;;
5965;SDS011;3009;43.224;27.976;2023-08-08T07:24:37;5.00;;;4.60;;
5965;SDS011;3009;43.224;27.976;2023-08-08T07:27:05;5.83;;;5.23;;
5965;SDS011;3009;43.224;27.976;2023-08-08T07:29:34;5.03;;;4.53;;
5965;SDS011;3009;43.224;27.976;2023-08-08T07:32:02;5.23;;;4.53;;
5965;SDS011;3009;43.224;27.976;2023-08-08T07:34:32;11.13;;;5.43;;
5965;SDS011;3009;43.224;27.976;2023-08-08T07:37:00;8.93;;;4.87;;
5965;SDS011;3009;43.224;27.976;2023-08-08T07:39:31;13.47;;;4.70;;
5965;SDS011;3009;43.224;27.976;2023-08-08T07:41:59;9.00;;;4.77;;
5965;SDS011;3009;43.224;27.976;2023-08-08T07:44:28;11.33;;;4.73;;
5965;SDS011;3009;43.224;27.976;2023-08-08T07:46:58;6.20;;;4.47;;
5965;SDS011;3009;43.224;27.976;2023-08-08T07:49:27;12.90;;;5.10;;
5965;SDS011;3009;43.224;27.976;2023-08-08T07:51:55;4.80;;;4.53;;
5965;SDS011;3009;43.224;27.976;2023-08-08T07:54:24;4.97;;;4.53;;
5965;SDS011;3009;43.224;27.976;2023-08-08T07:56:54;7.00;;;3.90;;
5965;SDS011;3009;43.224;27.976;2023-08-08T07:59:22;5.00;;;4.60;;
5965;SDS011;3009;43.224;27.976;2023-08-08T08:01:51;7.60;;;4.90;;
5965;SDS011;3009;43.224;27.976;2023-08-08T08:04:19;4.70;;;4.40;;
5965;SDS011;3009;43.224;27.976;2023-08-08T08:06:47;10.63;;;5.07;;
5965;SDS011;3009;43.224;27.976;2023-08-08T08:09:16;8.63;;;5.27;;
5965;SDS011;3009;43.224;27.976;2023-08-08T08:11:44;9.77;;;4.83;;
5965;SDS011;3009;43.224;27.976;2023-08-08T08:14:14;11.60;;;4.87;;
5965;SDS011;3009;43.224;27.976;2023-08-08T08:16:42;9.77;;;4.47;;
5965;SDS011;3009;43.224;27.976;2023-08-08T08:19:12;11.80;;;4.73;;
5965;SDS011;3009;43.224;27.976;2023-08-08T08:21:40;14.37;;;4.80;;
5965;SDS011;3009;43.224;27.976;2023-08-08T08:24:09;5.13;;;4.73;;
5965;SDS011;3009;43.224;27.976;2023-08-08T08:26:38;13.20;;;5.13;;
5965;SDS011;3009;43.224;27.976;2023-08-08T08:29:06;7.77;;;4.90;;
5965;SDS011;3009;43.224;27.976;2023-08-08T08:31:36;6.83;;;5.00;;
5965;SDS011;3009;43.224;27.976;2023-08-08T08:34:05;15.30;;;5.90;;
5965;SDS011;3009;43.224;27.976;2023-08-08T08:36:33;11.57;;;6.20;;
5965;SDS011;3009;43.224;27.976;2023-08-08T08:39:01;7.77;;;5.20;;
5965;SDS011;3009;43.224;27.976;2023-08-08T08:41:30;7.30;;;4.63;;
5965;SDS011;3009;43.224;27.976;2023-08-08T08:44:03;14.60;;;5.50;;
5965;SDS011;3009;43.224;27.976;2023-08-08T08:46:32;9.30;;;4.90;;
5965;SDS011;3009;43.224;27.976;2023-08-08T08:49:06;10.10;;;4.90;;
5965;SDS011;3009;43.224;27.976;2023-08-08T08:51:35;6.07;;;4.63;;
5965;SDS011;3009;43.224;27.976;2023-08-08T08:54:04;5.03;;;4.67;;
5965;SDS011;3009;43.224;27.976;2023-08-08T08:56:33;10.70;;;4.27;;
5965;SDS011;3009;43.224;27.976;2023-08-08T08:59:01;5.80;;;4.60;;
5965;SDS011;3009;43.224;27.976;2023-08-08T09:01:30;8.17;;;4.20;;
5965;SDS011;3009;43.224;27.976;2023-08-08T09:04:00;9.03;;;4.57;;
5965;SDS011;3009;43.224;27.976;2023-08-08T09:06:30;9.83;;;4.90;;
5965;SDS011;3009;43.224;27.976;2023-08-08T09:09:00;6.07;;;5.20;;
5965;SDS011;3009;43.224;27.976;2023-08-08T09:11:42;8.23;;;4.93;;
5965;SDS011;3009;43.224;27.976;2023-08-08T09:14:16;10.87;;;4.97;;
5965;SDS011;3009;43.224;27.976;2023-08-08T09:16:45;8.30;;;5.63;;
5965;SDS011;3009;43.224;27.976;2023-08-08T09:19:15;4.97;;;4.67;;
5965;SDS011;3009;43.224;27.976;2023-08-08T09:21:45;6.53;;;5.00;;
5965;SDS011;3009;43.224;27.976;2023-08-08T09:24:14;9.20;;;5.77;;
5965;SDS011;3009;43.224;27.976;2023-08-08T09:26:43;6.13;;;5.50;;
5965;SDS011;3009;43.224;27.976;2023-08-08T09:29:12;6.20;;;5.80;;
5965;SDS011;3009;43.224;27.976;2023-08-08T09:31:41;5.40;;;5.20;;
5965;SDS011;3009;43.224;27.976;2023-08-08T09:34:10;5.30;;;5.07;;
5965;SDS011;3009;43.224;27.976;2023-08-08T09:36:40;5.07;;;4.87;;
5965;SDS011;3009;43.224;27.976;2023-08-08T09:39:08;12.20;;;5.50;;
5965;SDS011;3009;43.224;27.976;2023-08-08T09:41:37;7.50;;;5.03;;
5965;SDS011;3009;43.224;27.976;2023-08-08T09:44:07;5.53;;;5.10;;
5965;SDS011;3009;43.224;27.976;2023-08-08T09:46:36;5.40;;;5.10;;
5965;SDS011;3009;43.224;27.976;2023-08-08T09:49:05;11.30;;;5.00;;
5965;SDS011;3009;43.224;27.976;2023-08-08T09:51:34;5.50;;;5.07;;
5965;SDS011;3009;43.224;27.976;2023-08-08T09:54:04;4.77;;;4.40;;
5965;SDS011;3009;43.224;27.976;2023-08-08T09:56:34;5.70;;;5.40;;
5965;SDS011;3009;43.224;27.976;2023-08-08T09:59:02;5.23;;;4.67;;
5965;SDS011;3009;43.224;27.976;2023-08-08T10:01:33;5.43;;;4.90;;
5965;SDS011;3009;43.224;27.976;2023-08-08T10:04:01;18.47;;;5.40;;
5965;SDS011;3009;43.224;27.976;2023-08-08T10:06:31;5.90;;;5.50;;
5965;SDS011;3009;43.224;27.976;2023-08-08T10:09:00;5.80;;;5.17;;
5965;SDS011;3009;43.224;27.976;2023-08-08T10:11:32;11.80;;;5.20;;
5965;SDS011;3009;43.224;27.976;2023-08-08T10:14:02;6.10;;;5.63;;
5965;SDS011;3009;43.224;27.976;2023-08-08T10:16:31;7.73;;;5.47;;
5965;SDS011;3009;43.224;27.976;2023-08-08T10:19:01;5.90;;;5.40;;
5965;SDS011;3009;43.224;27.976;2023-08-08T10:21:32;9.83;;;5.30;;
5965;SDS011;3009;43.224;27.976;2023-08-08T10:24:03;5.83;;;5.40;;
5965;SDS011;3009;43.224;27.976;2023-08-08T10:26:50;5.53;;;5.23;;
5965;SDS011;3009;43.224;27.976;2023-08-08T10:29:19;5.73;;;5.20;;
5965;SDS011;3009;43.224;27.976;2023-08-08T10:31:51;6.70;;;5.20;;
5965;SDS011;3009;43.224;27.976;2023-08-08T10:34:20;5.97;;;5.50;;
5965;SDS011;3009;43.224;27.976;2023-08-08T10:36:54;5.83;;;5.43;;
5965;SDS011;3009;43.224;27.976;2023-08-08T10:39:25;5.90;;;5.50;;
5965;SDS011;3009;43.224;27.976;2023-08-08T10:41:59;5.93;;;5.50;;
5965;SDS011;3009;43.224;27.976;2023-08-08T10:44:30;5.73;;;5.43;;
5965;SDS011;3009;43.224;27.976;2023-08-08T10:46:59;5.50;;;5.10;;
5965;SDS011;3009;43.224;27.976;2023-08-08T10:49:28;6.07;;;5.60;;
5965;SDS011;3009;43.224;27.976;2023-08-08T10:52:01;5.97;;;5.53;;
5965;SDS011;3009;43.224;27.976;2023-08-08T10:54:30;8.80;;;5.83;;
5965;SDS011;3009;43.224;27.976;2023-08-08T10:57:01;9.00;;;5.70;;
5965;SDS011;3009;43.224;27.976;2023-08-08T10:59:35;6.00;;;5.60;;
5965;SDS011;3009;43.224;27.976;2023-08-08T11:02:05;9.53;;;6.00;;
5965;SDS011;3009;43.224;27.976;2023-08-08T11:04:35;6.10;;;5.80;;
5965;SDS011;3009;43.224;27.976;2023-08-08T11:07:04;6.93;;;6.40;;
5965;SDS011;3009;43.224;27.976;2023-08-08T11:09:32;9.13;;;6.20;;
5965;SDS011;3009;43.224;27.976;2023-08-08T11:12:02;7.83;;;6.27;;
5965;SDS011;3009;43.224;27.976;2023-08-08T11:14:31;7.80;;;6.47;;
5965;SDS011;3009;43.224;27.976;2023-08-08T11:17:00;10.33;;;7.23;;
5965;SDS011;3009;43.224;27.976;2023-08-08T11:19:29;7.70;;;6.40;;
5965;SDS011;3009;43.224;27.976;2023-08-08T11:21:58;12.00;;;6.10;;
5965;SDS011;3009;43.224;27.976;2023-08-08T11:24:34;6.10;;;5.70;;
5965;SDS011;3009;43.224;27.976;2023-08-08T11:27:04;6.50;;;6.13;;
5965;SDS011;3009;43.224;27.976;2023-08-08T11:29:33;6.33;;;5.83;;
5965;SDS011;3009;43.224;27.976;2023-08-08T11:32:02;6.60;;;6.30;;
5965;SDS011;3009;43.224;27.976;2023-08-08T11:34:32;6.80;;;6.40;;
5965;SDS011;3009;43.224;27.976;2023-08-08T11:37:01;6.37;;;5.90;;
5965;SDS011;3009;43.224;27.976;2023-08-08T11:39:30;6.23;;;5.93;;
5965;SDS011;3009;43.224;27.976;2023-08-08T11:41:58;6.50;;;6.00;;
5965;SDS011;3009;43.224;27.976;2023-08-08T11:44:31;6.10;;;5.70;;
5965;SDS011;3009;43.224;27.976;2023-08-08T11:47:01;6.20;;;5.90;;
5965;SDS011;3009;43.224;27.976;2023-08-08T11:49:38;6.20;;;5.60;;
5965;SDS011;3009;43.224;27.976;2023-08-08T11:52:08;5.90;;;5.40;;
5965;SDS011;3009;43.224;27.976;2023-08-08T11:54:37;6.20;;;5.70;;
5965;SDS011;3009;43.224;27.976;2023-08-08T11:57:05;8.10;;;7.37;;
5965;SDS011;3009;43.224;27.976;2023-08-08T11:59:36;5.87;;;5.47;;
5965;SDS011;3009;43.224;27.976;2023-08-08T12:02:05;5.80;;;5.40;;
5965;SDS011;3009;43.224;27.976;2023-08-08T12:04:34;5.70;;;5.30;;
5965;SDS011;3009;43.224;27.976;2023-08-08T12:07:03;7.87;;;6.27;;
5965;SDS011;3009;43.224;27.976;2023-08-08T12:09:32;6.23;;;5.83;;
5965;SDS011;3009;43.224;27.976;2023-08-08T12:12:00;5.63;;;5.33;;
5965;SDS011;3009;43.224;27.976;2023-08-08T12:14:29;6.30;;;5.90;;
5965;SDS011;3009;43.224;27.976;2023-08-08T12:17:07;7.23;;;5.50;;
5965;SDS011;3009;43.224;27.976;2023-08-08T12:19:37;5.50;;;5.30;;
5965;SDS011;3009;43.224;27.976;2023-08-08T12:22:12;5.60;;;5.30;;
5965;SDS011;3009;43.224;27.976;2023-08-08T12:24:40;7.60;;;4.80;;
5965;SDS011;3009;43.224;27.976;2023-08-08T12:27:09;5.77;;;5.37;;
5965;SDS011;3009;43.224;27.976;2023-08-08T12:29:37;5.43;;;5.20;;
5965;SDS011;3009;43.224;27.976;2023-08-08T12:32:07;6.07;;;5.73;;
5965;SDS011;3009;43.224;27.976;2023-08-08T12:34:35;7.97;;;5.37;;
5965;SDS011;3009;43.224;27.976;2023-08-08T12:37:04;5.27;;;4.93;;
5965;SDS011;3009;43.224;27.976;2023-08-08T12:39:32;5.80;;;5.40;;
5965;SDS011;3009;43.224;27.976;2023-08-08T12:42:01;5.60;;;5.20;;
5965;SDS011;3009;43.224;27.976;2023-08-08T12:44:29;5.37;;;5.07;;
5965;SDS011;3009;43.224;27.976;2023-08-08T12:46:58;5.40;;;5.20;;
5965;SDS011;3009;43.224;27.976;2023-08-08T12:49:28;6.10;;;5.60;;
5965;SDS011;3009;43.224;27.976;2023-08-08T12:51:56;6.13;;;5.67;;
5965;SDS011;3009;43.224;27.976;2023-08-08T12:54:25;5.83;;;5.40;;
5965;SDS011;3009;43.224;27.976;2023-08-08T12:56:53;5.57;;;5.33;;
5965;SDS011;3009;43.224;27.976;2023-08-08T12:59:22;5.80;;;5.50;;
5965;SDS011;3009;43.224;27.976;2023-08-08T13:01:50;6.00;;;5.70;;
5965;SDS011;3009;43.224;27.976;2023-08-08T13:04:19;5.33;;;5.03;;
5965;SDS011;3009;43.224;27.976;2023-08-08T13:06:49;5.93;;;5.10;;
5965;SDS011;3009;43.224;27.976;2023-08-08T13:09:17;6.33;;;5.47;;
5965;SDS011;3009;43.224;27.976;2023-08-08T13:11:46;7.17;;;4.80;;
5965;SDS011;3009;43.224;27.976;2023-08-08T13:14:14;5.77;;;5.37;;
5965;SDS011;3009;43.224;27.976;2023-08-08T13:16:43;4.80;;;4.60;;
5965;SDS011;3009;43.224;27.976;2023-08-08T13:19:12;4.90;;;4.70;;
5965;SDS011;3009;43.224;27.976;2023-08-08T13:21:41;5.47;;;5.07;;
5965;SDS011;3009;43.224;27.976;2023-08-08T13:24:11;5.30;;;4.90;;
5965;SDS011;3009;43.224;27.976;2023-08-08T13:26:40;5.30;;;4.90;;
5965;SDS011;3009;43.224;27.976;2023-08-08T13:29:08;8.43;;;4.80;;
5965;SDS011;3009;43.224;27.976;2023-08-08T13:31:37;5.10;;;4.90;;
5965;SDS011;3009;43.224;27.976;2023-08-08T13:34:05;5.20;;;5.00;;
5965;SDS011;3009;43.224;27.976;2023-08-08T13:36:33;5.27;;;5.03;;
5965;SDS011;3009;43.224;27.976;2023-08-08T13:39:02;6.77;;;5.07;;
5965;SDS011;3009;43.224;27.976;2023-08-08T13:41:32;10.20;;;5.33;;
5965;SDS011;3009;43.224;27.976;2023-08-08T13:44:01;5.23;;;4.90;;
5965;SDS011;3009;43.224;27.976;2023-08-08T13:46:29;4.87;;;4.43;;
5965;SDS011;3009;43.224;27.976;2023-08-08T13:48:57;4.93;;;4.70;;
5965;SDS011;3009;43.224;27.976;2023-08-08T13:51:26;9.30;;;4.83;;
5965;SDS011;3009;43.224;27.976;2023-08-08T13:53:54;5.63;;;5.23;;
5965;SDS011;3009;43.224;27.976;2023-08-08T13:56:23;5.07;;;4.87;;
5965;SDS011;3009;43.224;27.976;2023-08-08T13:58:52;5.10;;;4.80;;
5965;SDS011;3009;43.224;27.976;2023-08-08T14:01:21;4.87;;;4.67;;
5965;SDS011;3009;43.224;27.976;2023-08-08T14:03:49;4.93;;;4.53;;
5965;SDS011;3009;43.224;27.976;2023-08-08T14:06:19;5.07;;;4.57;;
5965;SDS011;3009;43.224;27.976;2023-08-08T14:08:48;4.73;;;4.53;;
5965;SDS011;3009;43.224;27.976;2023-08-08T14:11:18;5.00;;;4.70;;
5965;SDS011;3009;43.224;27.976;2023-08-08T14:13:47;5.50;;;5.03;;
5965;SDS011;3009;43.224;27.976;2023-08-08T14:16:16;5.53;;;4.90;;
5965;SDS011;3009;43.224;27.976;2023-08-08T14:18:45;5.17;;;4.97;;
5965;SDS011;3009;43.224;27.976;2023-08-08T14:21:14;5.00;;;4.80;;
5965;SDS011;3009;43.224;27.976;2023-08-08T14:23:42;4.87;;;4.67;;
5965;SDS011;3009;43.224;27.976;2023-08-08T14:26:11;5.10;;;4.80;;
5965;SDS011;3009;43.224;27.976;2023-08-08T14:28:39;4.70;;;4.50;;
5965;SDS011;3009;43.224;27.976;2023-08-08T14:31:08;7.70;;;5.00;;
5965;SDS011;3009;43.224;27.976;2023-08-08T14:33:37;4.70;;;4.40;;
5965;SDS011;3009;43.224;27.976;2023-08-08T14:36:06;4.90;;;4.60;;
5965;SDS011;3009;43.224;27.976;2023-08-08T14:38:35;5.20;;;4.73;;
5965;SDS011;3009;43.224;27.976;2023-08-08T14:41:03;4.00;;;3.80;;
5965;SDS011;3009;43.224;27.976;2023-08-08T14:43:32;4.77;;;4.20;;
5965;SDS011;3009;43.224;27.976;2023-08-08T14:46:00;7.60;;;4.90;;
5965;SDS011;3009;43.224;27.976;2023-08-08T14:48:29;4.40;;;4.10;;
5965;SDS011;3009;43.224;27.976;2023-08-08T14:50:59;4.83;;;4.53;;
5965;SDS011;3009;43.224;27.976;2023-08-08T14:53:29;4.90;;;4.60;;
5965;SDS011;3009;43.224;27.976;2023-08-08T14:55:58;5.20;;;4.90;;
5965;SDS011;3009;43.224;27.976;2023-08-08T14:58:26;4.80;;;4.60;;
5965;SDS011;3009;43.224;27.976;2023-08-08T15:00:55;5.00;;;4.70;;
5965;SDS011;3009;43.224;27.976;2023-08-08T15:03:23;4.93;;;4.73;;
5965;SDS011;3009;43.224;27.976;2023-08-08T15:05:51;4.77;;;4.57;;
5965;SDS011;3009;43.224;27.976;2023-08-08T15:08:21;4.60;;;4.30;;
5965;SDS011;3009;43.224;27.976;2023-08-08T15:10:51;4.43;;;4.23;;